sensor_id;sensor_type;location;lat;lon;timestamp;P1;durP1;ratioP1;P2;durP2;ratioP2
9767;SDS011;4923;52.520;13.494;2024-02-14T00:02:42;5.97;;;5.35;;
9767;SDS011;4923;52.520;13.494;2024-02-14T00:05:34;7.40;;;4.88;;
9767;SDS011;4923;52.520;13.494;2024-02-14T00:08:21;7.40;;;5.60;;
9767;SDS011;4923;52.520;13.494;2024-02-14T00:11:08;5.10;;;4.60;;
9767;SDS011;4923;52.520;13.494;2024-02-14T00:13:55;7.95;;;5.88;;
9767;SDS011;4923;52.520;13.494;2024-02-14T00:16:43;5.88;;;5.20;;
9767;SDS011;4923;52.520;13.494;2024-02-14T00:19:30;9.55;;;6.10;;
9767;SDS011;4923;52.520;13.494;2024-02-14T00:22:18;6.40;;;5.22;;
9767;SDS011;4923;52.520;13.494;2024-02-14T00:25:05;5.65;;;5.10;;
9767;SDS011;4923;52.520;13.494;2024-02-14T00:27:54;7.78;;;5.47;;
9767;SDS011;4923;52.520;13.494;2024-02-14T00:30:41;5.70;;;5.20;;
9767;SDS011;4923;52.520;13.494;2024-02-14T00:33:29;6.28;;;5.13;;
9767;SDS011;4923;52.520;13.494;2024-02-14T00:36:16;6.90;;;5.75;;
9767;SDS011;4923;52.520;13.494;2024-02-14T00:39:05;8.60;;;6.03;;
9767;SDS011;4923;52.520;13.494;2024-02-14T00:41:54;8.75;;;5.80;;
9767;SDS011;4923;52.520;13.494;2024-02-14T00:44:41;6.55;;;5.95;;
9767;SDS011;4923;52.520;13.494;2024-02-14T00:47:28;5.97;;;5.40;;
9767;SDS011;4923;52.520;13.494;2024-02-14T00:50:16;7.45;;;5.50;;
9767;SDS011;4923;52.520;13.494;2024-02-14T00:53:03;6.22;;;5.57;;
9767;SDS011;4923;52.520;13.494;2024-02-14T00:55:52;5.80;;;5.20;;
9767;SDS011;4923;52.520;13.494;2024-02-14T00:58:40;7.15;;;5.82;;
9767;SDS011;4923;52.520;13.494;2024-02-14T01:01:27;8.93;;;5.50;;
9767;SDS011;4923;52.520;13.494;2024-02-14T01:04:14;8.10;;;5.25;;
9767;SDS011;4923;52.520;13.494;2024-02-14T01:07:05;6.22;;;5.28;;
9767;SDS011;4923;52.520;13.494;2024-02-14T01:09:53;10.00;;;5.57;;
9767;SDS011;4923;52.520;13.494;2024-02-14T01:12:42;8.60;;;5.10;;
9767;SDS011;4923;52.520;13.494;2024-02-14T01:15:29;5.35;;;4.85;;
9767;SDS011;4923;52.520;13.494;2024-02-14T01:18:16;6.85;;;4.97;;
9767;SDS011;4923;52.520;13.494;2024-02-14T01:21:03;5.40;;;4.57;;
9767;SDS011;4923;52.520;13.494;2024-02-14T01:23:51;9.07;;;4.95;;
9767;SDS011;4923;52.520;13.494;2024-02-14T01:26:41;7.40;;;5.20;;
9767;SDS011;4923;52.520;13.494;2024-02-14T01:29:29;5.45;;;4.35;;
9767;SDS011;4923;52.520;13.494;2024-02-14T01:32:18;5.15;;;4.63;;
9767;SDS011;4923;52.520;13.494;2024-02-14T01:35:06;6.68;;;4.55;;
9767;SDS011;4923;52.520;13.494;2024-02-14T01:37:55;4.30;;;4.00;;
9767;SDS011;4923;52.520;13.494;2024-02-14T01:40:42;6.65;;;4.50;;
9767;SDS011;4923;52.520;13.494;2024-02-14T01:43:33;5.72;;;4.60;;
9767;SDS011;4923;52.520;13.494;2024-02-14T01:46:22;4.97;;;4.57;;
9767;SDS011;4923;52.520;13.494;2024-02-14T01:49:09;3.53;;;3.25;;
9767;SDS011;4923;52.520;13.494;2024-02-14T01:51:58;7.30;;;4.55;;
9767;SDS011;4923;52.520;13.494;2024-02-14T01:54:48;5.32;;;4.78;;
9767;SDS011;4923;52.520;13.494;2024-02-14T01:57:37;5.90;;;4.50;;
9767;SDS011;4923;52.520;13.494;2024-02-14T02:00:25;5.00;;;4.50;;
9767;SDS011;4923;52.520;13.494;2024-02-14T02:03:14;6.13;;;4.65;;
9767;SDS011;4923;52.520;13.494;2024-02-14T02:06:02;8.52;;;4.32;;
9767;SDS011;4923;52.520;13.494;2024-02-14T02:08:49;10.52;;;4.22;;
9767;SDS011;4923;52.520;13.494;2024-02-14T02:11:45;6.50;;;3.97;;
9767;SDS011;4923;52.520;13.494;2024-02-14T02:14:34;4.97;;;4.50;;
9767;SDS011;4923;52.520;13.494;2024-02-14T02:17:25;4.05;;;3.85;;
9767;SDS011;4923;52.520;13.494;2024-02-14T02:20:14;8.82;;;4.82;;
9767;SDS011;4923;52.520;13.494;2024-02-14T02:23:06;4.55;;;4.25;;
9767;SDS011;4923;52.520;13.494;2024-02-14T02:25:55;5.70;;;4.55;;
9767;SDS011;4923;52.520;13.494;2024-02-14T02:28:42;4.28;;;3.88;;
9767;SDS011;4923;52.520;13.494;2024-02-14T02:31:30;10.05;;;4.05;;
9767;SDS011;4923;52.520;13.494;2024-02-14T02:34:17;5.85;;;4.80;;
9767;SDS011;4923;52.520;13.494;2024-02-14T02:37:04;6.50;;;4.13;;
9767;SDS011;4923;52.520;13.494;2024-02-14T02:39:56;6.50;;;3.55;;
9767;SDS011;4923;52.520;13.494;2024-02-14T02:42:43;4.95;;;3.80;;
9767;SDS011;4923;52.520;13.494;2024-02-14T02:45:31;4.05;;;3.75;;
9767;SDS011;4923;52.520;13.494;2024-02-14T02:48:18;4.50;;;4.00;;
9767;SDS011;4923;52.520;13.494;2024-02-14T02:51:08;4.40;;;3.60;;
9767;SDS011;4923;52.520;13.494;2024-02-14T02:53:55;5.00;;;3.47;;
9767;SDS011;4923;52.520;13.494;2024-02-14T02:56:44;3.42;;;3.33;;
9767;SDS011;4923;52.520;13.494;2024-02-14T02:59:34;5.32;;;3.50;;
9767;SDS011;4923;52.520;13.494;2024-02-14T03:02:21;7.13;;;3.83;;
9767;SDS011;4923;52.520;13.494;2024-02-14T03:05:08;4.00;;;3.20;;
9767;SDS011;4923;52.520;13.494;2024-02-14T03:08:03;4.13;;;3.72;;
9767;SDS011;4923;52.520;13.494;2024-02-14T03:10:53;3.28;;;2.97;;
9767;SDS011;4923;52.520;13.494;2024-02-14T03:13:42;5.15;;;3.55;;
9767;SDS011;4923;52.520;13.494;2024-02-14T03:16:34;3.55;;;3.35;;
9767;SDS011;4923;52.520;13.494;2024-02-14T03:19:22;6.47;;;3.65;;
9767;SDS011;4923;52.520;13.494;2024-02-14T03:22:10;4.88;;;3.58;;
9767;SDS011;4923;52.520;13.494;2024-02-14T03:24:57;3.83;;;3.30;;
9767;SDS011;4923;52.520;13.494;2024-02-14T03:27:44;3.50;;;3.22;;
9767;SDS011;4923;52.520;13.494;2024-02-14T03:30:36;5.53;;;4.15;;
9767;SDS011;4923;52.520;13.494;2024-02-14T03:33:24;3.75;;;3.55;;
9767;SDS011;4923;52.520;13.494;2024-02-14T03:36:11;10.10;;;4.25;;
9767;SDS011;4923;52.520;13.494;2024-02-14T03:38:58;5.30;;;3.40;;
9767;SDS011;4923;52.520;13.494;2024-02-14T03:41:49;4.43;;;3.83;;
9767;SDS011;4923;52.520;13.494;2024-02-14T03:44:36;4.18;;;3.90;;
9767;SDS011;4923;52.520;13.494;2024-02-14T03:47:25;5.25;;;4.50;;
9767;SDS011;4923;52.520;13.494;2024-02-14T03:50:12;4.80;;;4.40;;
9767;SDS011;4923;52.520;13.494;2024-02-14T03:53:00;4.78;;;3.60;;
9767;SDS011;4923;52.520;13.494;2024-02-14T03:55:48;8.13;;;3.97;;
9767;SDS011;4923;52.520;13.494;2024-02-14T03:58:38;4.30;;;3.90;;
9767;SDS011;4923;52.520;13.494;2024-02-14T04:01:25;4.45;;;4.05;;
9767;SDS011;4923;52.520;13.494;2024-02-14T04:04:14;4.35;;;4.05;;
9767;SDS011;4923;52.520;13.494;2024-02-14T04:07:03;4.57;;;4.28;;
9767;SDS011;4923;52.520;13.494;2024-02-14T04:09:50;4.07;;;3.78;;
9767;SDS011;4923;52.520;13.494;2024-02-14T04:12:37;4.55;;;4.25;;
9767;SDS011;4923;52.520;13.494;2024-02-14T04:15:25;3.53;;;3.40;;
9767;SDS011;4923;52.520;13.494;2024-02-14T04:18:12;6.22;;;4.05;;
9767;SDS011;4923;52.520;13.494;2024-02-14T04:21:07;8.90;;;4.78;;
9767;SDS011;4923;52.520;13.494;2024-02-14T04:23:54;5.75;;;5.25;;
9767;SDS011;4923;52.520;13.494;2024-02-14T04:26:42;5.00;;;4.40;;
9767;SDS011;4923;52.520;13.494;2024-02-14T04:29:30;4.93;;;3.83;;
9767;SDS011;4923;52.520;13.494;2024-02-14T04:32:18;4.93;;;4.53;;
9767;SDS011;4923;52.520;13.494;2024-02-14T04:35:07;5.95;;;3.90;;
9767;SDS011;4923;52.520;13.494;2024-02-14T04:37:55;4.10;;;3.90;;
9767;SDS011;4923;52.520;13.494;2024-02-14T04:40:42;5.03;;;4.50;;
9767;SDS011;4923;52.520;13.494;2024-02-14T04:43:30;4.00;;;3.60;;
9767;SDS011;4923;52.520;13.494;2024-02-14T04:46:17;8.63;;;4.18;;
9767;SDS011;4923;52.520;13.494;2024-02-14T04:49:04;5.22;;;3.58;;
9767;SDS011;4923;52.520;13.494;2024-02-14T04:51:51;4.40;;;4.10;;
9767;SDS011;4923;52.520;13.494;2024-02-14T04:54:40;6.10;;;4.10;;
9767;SDS011;4923;52.520;13.494;2024-02-14T04:57:26;7.95;;;5.28;;
9767;SDS011;4923;52.520;13.494;2024-02-14T05:00:14;4.63;;;4.22;;
9767;SDS011;4923;52.520;13.494;2024-02-14T05:03:02;4.72;;;4.43;;
9767;SDS011;4923;52.520;13.494;2024-02-14T05:05:49;5.07;;;4.68;;
9767;SDS011;4923;52.520;13.494;2024-02-14T05:08:37;9.32;;;4.40;;
9767;SDS011;4923;52.520;13.494;2024-02-14T05:11:25;3.80;;;3.50;;
9767;SDS011;4923;52.520;13.494;2024-02-14T05:14:13;8.77;;;4.10;;
9767;SDS011;4923;52.520;13.494;2024-02-14T05:17:02;4.35;;;3.95;;
9767;SDS011;4923;52.520;13.494;2024-02-14T05:19:50;5.05;;;3.58;;
9767;SDS011;4923;52.520;13.494;2024-02-14T05:22:38;3.92;;;3.70;;
9767;SDS011;4923;52.520;13.494;2024-02-14T05:25:26;5.03;;;4.63;;
9767;SDS011;4923;52.520;13.494;2024-02-14T05:28:16;10.85;;;4.00;;
9767;SDS011;4923;52.520;13.494;2024-02-14T05:31:04;4.40;;;3.50;;
9767;SDS011;4923;52.520;13.494;2024-02-14T05:33:52;8.65;;;4.70;;
9767;SDS011;4923;52.520;13.494;2024-02-14T05:36:39;4.45;;;4.00;;
9767;SDS011;4923;52.520;13.494;2024-02-14T05:39:27;5.60;;;4.20;;
9767;SDS011;4923;52.520;13.494;2024-02-14T05:42:14;4.07;;;3.53;;
9767;SDS011;4923;52.520;13.494;2024-02-14T05:45:04;4.00;;;3.70;;
9767;SDS011;4923;52.520;13.494;2024-02-14T05:47:55;5.88;;;3.90;;
9767;SDS011;4923;52.520;13.494;2024-02-14T05:50:42;3.13;;;2.92;;
9767;SDS011;4923;52.520;13.494;2024-02-14T05:53:29;6.10;;;4.75;;
9767;SDS011;4923;52.520;13.494;2024-02-14T05:56:17;6.18;;;4.15;;
9767;SDS011;4923;52.520;13.494;2024-02-14T05:59:05;4.32;;;3.92;;
9767;SDS011;4923;52.520;13.494;2024-02-14T06:01:53;3.97;;;3.53;;
9767;SDS011;4923;52.520;13.494;2024-02-14T06:04:41;5.32;;;3.50;;
9767;SDS011;4923;52.520;13.494;2024-02-14T06:07:31;3.65;;;3.35;;
9767;SDS011;4923;52.520;13.494;2024-02-14T06:10:19;5.95;;;3.28;;
9767;SDS011;4923;52.520;13.494;2024-02-14T06:13:06;3.13;;;2.95;;
9767;SDS011;4923;52.520;13.494;2024-02-14T06:15:53;7.13;;;3.28;;
9767;SDS011;4923;52.520;13.494;2024-02-14T06:18:42;20.52;;;3.65;;
9767;SDS011;4923;52.520;13.494;2024-02-14T06:21:29;3.13;;;2.92;;
9767;SDS011;4923;52.520;13.494;2024-02-14T06:24:18;4.55;;;2.58;;
9767;SDS011;4923;52.520;13.494;2024-02-14T06:27:06;5.22;;;3.25;;
9767;SDS011;4923;52.520;13.494;2024-02-14T06:29:53;3.65;;;3.40;;
9767;SDS011;4923;52.520;13.494;2024-02-14T06:32:40;6.70;;;3.22;;
9767;SDS011;4923;52.520;13.494;2024-02-14T06:35:29;2.90;;;2.60;;
9767;SDS011;4923;52.520;13.494;2024-02-14T06:38:16;5.53;;;3.45;;
9767;SDS011;4923;52.520;13.494;2024-02-14T06:41:05;4.00;;;2.92;;
9767;SDS011;4923;52.520;13.494;2024-02-14T06:43:52;3.75;;;3.13;;
9767;SDS011;4923;52.520;13.494;2024-02-14T06:46:39;5.65;;;3.90;;
9767;SDS011;4923;52.520;13.494;2024-02-14T06:49:27;8.90;;;3.50;;
9767;SDS011;4923;52.520;13.494;2024-02-14T06:52:15;3.10;;;2.78;;
9767;SDS011;4923;52.520;13.494;2024-02-14T06:55:02;4.47;;;2.70;;
9767;SDS011;4923;52.520;13.494;2024-02-14T06:57:50;3.10;;;2.80;;
9767;SDS011;4923;52.520;13.494;2024-02-14T07:00:37;8.02;;;3.00;;
9767;SDS011;4923;52.520;13.494;2024-02-14T07:03:26;6.05;;;2.90;;
9767;SDS011;4923;52.520;13.494;2024-02-14T07:06:13;7.80;;;2.72;;
9767;SDS011;4923;52.520;13.494;2024-02-14T07:09:02;7.18;;;3.60;;
9767;SDS011;4923;52.520;13.494;2024-02-14T07:11:49;3.15;;;2.72;;
9767;SDS011;4923;52.520;13.494;2024-02-14T07:14:39;4.32;;;3.92;;
9767;SDS011;4923;52.520;13.494;2024-02-14T07:17:26;3.10;;;2.90;;
9767;SDS011;4923;52.520;13.494;2024-02-14T07:20:13;3.67;;;2.85;;
9767;SDS011;4923;52.520;13.494;2024-02-14T07:23:01;6.80;;;3.00;;
9767;SDS011;4923;52.520;13.494;2024-02-14T07:25:49;2.92;;;2.67;;
9767;SDS011;4923;52.520;13.494;2024-02-14T07:28:36;3.42;;;3.03;;
9767;SDS011;4923;52.520;13.494;2024-02-14T07:31:23;4.45;;;4.05;;
9767;SDS011;4923;52.520;13.494;2024-02-14T07:34:15;4.07;;;3.55;;
9767;SDS011;4923;52.520;13.494;2024-02-14T07:37:02;5.70;;;2.78;;
9767;SDS011;4923;52.520;13.494;2024-02-14T07:39:49;2.55;;;2.45;;
9767;SDS011;4923;52.520;13.494;2024-02-14T07:42:37;3.35;;;2.65;;
9767;SDS011;4923;52.520;13.494;2024-02-14T07:45:25;2.70;;;2.38;;
9767;SDS011;4923;52.520;13.494;2024-02-14T07:48:12;6.95;;;2.78;;
9767;SDS011;4923;52.520;13.494;2024-02-14T07:50:59;7.30;;;2.92;;
9767;SDS011;4923;52.520;13.494;2024-02-14T07:53:46;2.97;;;2.55;;
9767;SDS011;4923;52.520;13.494;2024-02-14T07:56:34;11.98;;;2.80;;
9767;SDS011;4923;52.520;13.494;2024-02-14T07:59:25;7.25;;;2.80;;
9767;SDS011;4923;52.520;13.494;2024-02-14T08:02:14;5.22;;;3.05;;
9767;SDS011;4923;52.520;13.494;2024-02-14T08:05:02;10.73;;;3.05;;
9767;SDS011;4923;52.520;13.494;2024-02-14T08:07:50;9.20;;;2.45;;
9767;SDS011;4923;52.520;13.494;2024-02-14T08:10:37;4.53;;;3.85;;
9767;SDS011;4923;52.520;13.494;2024-02-14T08:13:25;5.60;;;1.90;;
9767;SDS011;4923;52.520;13.494;2024-02-14T08:16:14;2.17;;;2.08;;
9767;SDS011;4923;52.520;13.494;2024-02-14T08:19:01;3.25;;;1.58;;
9767;SDS011;4923;52.520;13.494;2024-02-14T08:21:49;3.05;;;2.03;;
9767;SDS011;4923;52.520;13.494;2024-02-14T08:24:36;4.32;;;2.25;;
9767;SDS011;4923;52.520;13.494;2024-02-14T08:27:23;4.25;;;2.05;;
9767;SDS011;4923;52.520;13.494;2024-02-14T08:30:11;6.07;;;3.00;;
9767;SDS011;4923;52.520;13.494;2024-02-14T08:33:00;3.20;;;1.95;;
9767;SDS011;4923;52.520;13.494;2024-02-14T08:35:47;3.65;;;2.15;;
9767;SDS011;4923;52.520;13.494;2024-02-14T08:38:37;2.88;;;1.90;;
9767;SDS011;4923;52.520;13.494;2024-02-14T08:41:24;1.73;;;1.63;;
9767;SDS011;4923;52.520;13.494;2024-02-14T08:44:14;1.77;;;1.70;;
9767;SDS011;4923;52.520;13.494;2024-02-14T08:47:01;2.75;;;2.10;;
9767;SDS011;4923;52.520;13.494;2024-02-14T08:49:49;3.50;;;2.05;;
9767;SDS011;4923;52.520;13.494;2024-02-14T08:52:36;2.80;;;1.90;;
9767;SDS011;4923;52.520;13.494;2024-02-14T08:55:24;3.28;;;2.08;;
9767;SDS011;4923;52.520;13.494;2024-02-14T08:58:11;4.50;;;2.42;;
9767;SDS011;4923;52.520;13.494;2024-02-14T09:01:00;4.40;;;1.92;;
9767;SDS011;4923;52.520;13.494;2024-02-14T09:03:47;2.10;;;1.90;;
9767;SDS011;4923;52.520;13.494;2024-02-14T09:06:35;4.97;;;1.95;;
9767;SDS011;4923;52.520;13.494;2024-02-14T09:09:24;2.30;;;1.60;;
9767;SDS011;4923;52.520;13.494;2024-02-14T09:12:11;2.90;;;2.00;;
9767;SDS011;4923;52.520;13.494;2024-02-14T09:14:58;1.65;;;1.55;;
9767;SDS011;4923;52.520;13.494;2024-02-14T09:17:46;2.83;;;1.60;;
9767;SDS011;4923;52.520;13.494;2024-02-14T09:20:35;4.65;;;1.70;;
9767;SDS011;4923;52.520;13.494;2024-02-14T09:23:24;4.13;;;2.00;;
9767;SDS011;4923;52.520;13.494;2024-02-14T09:26:11;3.20;;;2.25;;
9767;SDS011;4923;52.520;13.494;2024-02-14T09:28:58;2.78;;;2.40;;
9767;SDS011;4923;52.520;13.494;2024-02-14T09:31:45;6.68;;;1.63;;
9767;SDS011;4923;52.520;13.494;2024-02-14T09:34:34;2.95;;;1.55;;
9767;SDS011;4923;52.520;13.494;2024-02-14T09:37:21;1.60;;;1.60;;
9767;SDS011;4923;52.520;13.494;2024-02-14T09:40:10;4.68;;;1.85;;
9767;SDS011;4923;52.520;13.494;2024-02-14T09:43:00;1.90;;;1.80;;
9767;SDS011;4923;52.520;13.494;2024-02-14T09:45:51;2.53;;;1.92;;
9767;SDS011;4923;52.520;13.494;2024-02-14T09:48:38;3.55;;;1.70;;
9767;SDS011;4923;52.520;13.494;2024-02-14T09:51:29;2.90;;;1.92;;
9767;SDS011;4923;52.520;13.494;2024-02-14T09:54:16;1.40;;;1.30;;
9767;SDS011;4923;52.520;13.494;2024-02-14T09:57:05;1.80;;;1.70;;
9767;SDS011;4923;52.520;13.494;2024-02-14T09:59:53;2.00;;;1.80;;
9767;SDS011;4923;52.520;13.494;2024-02-14T10:02:40;1.90;;;1.80;;
9767;SDS011;4923;52.520;13.494;2024-02-14T10:05:29;4.20;;;1.20;;
9767;SDS011;4923;52.520;13.494;2024-02-14T10:08:17;4.03;;;1.70;;
9767;SDS011;4923;52.520;13.494;2024-02-14T10:11:06;1.85;;;1.65;;
9767;SDS011;4923;52.520;13.494;2024-02-14T10:13:58;1.45;;;1.35;;
9767;SDS011;4923;52.520;13.494;2024-02-14T10:16:48;1.48;;;1.38;;
9767;SDS011;4923;52.520;13.494;2024-02-14T10:19:35;1.40;;;1.27;;
9767;SDS011;4923;52.520;13.494;2024-02-14T10:22:22;1.13;;;1.00;;
9767;SDS011;4923;52.520;13.494;2024-02-14T10:25:09;2.15;;;1.55;;
9767;SDS011;4923;52.520;13.494;2024-02-14T10:27:56;1.95;;;1.17;;
9767;SDS011;4923;52.520;13.494;2024-02-14T10:30:46;4.13;;;1.27;;
9767;SDS011;4923;52.520;13.494;2024-02-14T10:33:34;2.40;;;1.10;;
9767;SDS011;4923;52.520;13.494;2024-02-14T10:36:22;2.28;;;1.25;;
9767;SDS011;4923;52.520;13.494;2024-02-14T10:39:09;2.45;;;1.15;;
9767;SDS011;4923;52.520;13.494;2024-02-14T10:41:57;0.90;;;0.90;;
9767;SDS011;4923;52.520;13.494;2024-02-14T10:44:45;1.48;;;1.38;;
9767;SDS011;4923;52.520;13.494;2024-02-14T10:47:36;1.13;;;0.88;;
9767;SDS011;4923;52.520;13.494;2024-02-14T10:50:29;2.05;;;1.00;;
9767;SDS011;4923;52.520;13.494;2024-02-14T10:53:20;1.88;;;1.10;;
9767;SDS011;4923;52.520;13.494;2024-02-14T10:56:11;1.23;;;1.17;;
9767;SDS011;4923;52.520;13.494;2024-02-14T10:59:03;3.83;;;1.10;;
9767;SDS011;4923;52.520;13.494;2024-02-14T11:01:51;1.83;;;1.02;;
9767;SDS011;4923;52.520;13.494;2024-02-14T11:04:43;0.88;;;0.88;;
9767;SDS011;4923;52.520;13.494;2024-02-14T11:07:31;1.25;;;1.15;;
9767;SDS011;4923;52.520;13.494;2024-02-14T11:10:19;5.78;;;0.80;;
9767;SDS011;4923;52.520;13.494;2024-02-14T11:13:09;1.35;;;1.35;;
9767;SDS011;4923;52.520;13.494;2024-02-14T11:16:00;1.33;;;1.33;;
9767;SDS011;4923;52.520;13.494;2024-02-14T11:18:49;1.52;;;1.42;;
9767;SDS011;4923;52.520;13.494;2024-02-14T11:21:39;3.33;;;0.80;;
9767;SDS011;4923;52.520;13.494;2024-02-14T11:24:28;2.88;;;1.05;;
9767;SDS011;4923;52.520;13.494;2024-02-14T11:27:17;0.90;;;0.90;;
9767;SDS011;4923;52.520;13.494;2024-02-14T11:30:06;7.70;;;1.05;;
9767;SDS011;4923;52.520;13.494;2024-02-14T11:33:13;1.48;;;1.33;;
9767;SDS011;4923;52.520;13.494;2024-02-14T11:36:10;2.42;;;1.25;;
9767;SDS011;4923;52.520;13.494;2024-02-14T11:39:03;2.15;;;1.05;;
9767;SDS011;4923;52.520;13.494;2024-02-14T11:41:51;3.67;;;1.15;;
9767;SDS011;4923;52.520;13.494;2024-02-14T11:44:39;6.50;;;1.30;;
9767;SDS011;4923;52.520;13.494;2024-02-14T11:47:28;4.90;;;1.20;;
9767;SDS011;4923;52.520;13.494;2024-02-14T11:50:17;1.63;;;1.40;;
9767;SDS011;4923;52.520;13.494;2024-02-14T11:53:04;9.77;;;1.17;;
9767;SDS011;4923;52.520;13.494;2024-02-14T11:55:56;3.63;;;1.23;;
9767;SDS011;4923;52.520;13.494;2024-02-14T11:58:43;1.50;;;1.40;;
9767;SDS011;4923;52.520;13.494;2024-02-14T12:01:30;2.05;;;1.65;;
9767;SDS011;4923;52.520;13.494;2024-02-14T12:04:19;2.83;;;1.20;;
9767;SDS011;4923;52.520;13.494;2024-02-14T12:07:06;1.40;;;1.30;;
9767;SDS011;4923;52.520;13.494;2024-02-14T12:09:54;1.30;;;1.20;;
9767;SDS011;4923;52.520;13.494;2024-02-14T12:12:45;5.20;;;1.88;;
9767;SDS011;4923;52.520;13.494;2024-02-14T12:15:36;1.15;;;1.15;;
9767;SDS011;4923;52.520;13.494;2024-02-14T12:18:23;5.47;;;1.33;;
9767;SDS011;4923;52.520;13.494;2024-02-14T12:21:10;1.83;;;1.60;;
9767;SDS011;4923;52.520;13.494;2024-02-14T12:23:58;2.30;;;1.60;;
9767;SDS011;4923;52.520;13.494;2024-02-14T12:26:45;6.20;;;2.10;;
9767;SDS011;4923;52.520;13.494;2024-02-14T12:29:36;1.92;;;1.83;;
9767;SDS011;4923;52.520;13.494;2024-02-14T12:32:23;1.00;;;1.00;;
9767;SDS011;4923;52.520;13.494;2024-02-14T12:35:13;1.42;;;1.30;;
9767;SDS011;4923;52.520;13.494;2024-02-14T12:38:00;1.75;;;1.65;;
9767;SDS011;4923;52.520;13.494;2024-02-14T12:40:48;2.30;;;1.48;;
9767;SDS011;4923;52.520;13.494;2024-02-14T12:43:35;7.00;;;1.63;;
9767;SDS011;4923;52.520;13.494;2024-02-14T12:46:26;4.95;;;1.80;;
9767;SDS011;4923;52.520;13.494;2024-02-14T12:49:13;4.75;;;1.60;;
9767;SDS011;4923;52.520;13.494;2024-02-14T12:52:00;8.05;;;1.63;;
9767;SDS011;4923;52.520;13.494;2024-02-14T12:54:49;3.85;;;1.73;;
9767;SDS011;4923;52.520;13.494;2024-02-14T12:57:36;1.88;;;1.52;;
9767;SDS011;4923;52.520;13.494;2024-02-14T13:00:25;2.38;;;1.67;;
9767;SDS011;4923;52.520;13.494;2024-02-14T13:03:14;1.38;;;1.35;;
9767;SDS011;4923;52.520;13.494;2024-02-14T13:06:01;1.25;;;1.25;;
9767;SDS011;4923;52.520;13.494;2024-02-14T13:08:48;2.97;;;1.48;;
9767;SDS011;4923;52.520;13.494;2024-02-14T13:11:35;1.77;;;1.48;;
9767;SDS011;4923;52.520;13.494;2024-02-14T13:14:24;1.55;;;1.45;;
9767;SDS011;4923;52.520;13.494;2024-02-14T13:17:11;2.47;;;1.50;;
9767;SDS011;4923;52.520;13.494;2024-02-14T13:20:00;1.15;;;1.15;;
9767;SDS011;4923;52.520;13.494;2024-02-14T13:22:47;1.02;;;1.00;;
9767;SDS011;4923;52.520;13.494;2024-02-14T13:25:35;4.43;;;1.65;;
9767;SDS011;4923;52.520;13.494;2024-02-14T13:28:22;5.10;;;1.73;;
9767;SDS011;4923;52.520;13.494;2024-02-14T13:31:10;1.85;;;1.75;;
9767;SDS011;4923;52.520;13.494;2024-02-14T13:33:59;1.60;;;1.50;;
9767;SDS011;4923;52.520;13.494;2024-02-14T13:36:48;5.28;;;1.40;;
9767;SDS011;4923;52.520;13.494;2024-02-14T13:39:35;3.58;;;1.42;;
9767;SDS011;4923;52.520;13.494;2024-02-14T13:42:22;1.40;;;1.30;;
9767;SDS011;4923;52.520;13.494;2024-02-14T13:45:09;1.55;;;1.45;;
9767;SDS011;4923;52.520;13.494;2024-02-14T13:48:03;1.50;;;1.40;;
9767;SDS011;4923;52.520;13.494;2024-02-14T13:50:50;5.18;;;1.70;;
9767;SDS011;4923;52.520;13.494;2024-02-14T13:53:39;1.98;;;1.88;;
9767;SDS011;4923;52.520;13.494;2024-02-14T13:56:26;3.97;;;1.60;;
9767;SDS011;4923;52.520;13.494;2024-02-14T13:59:13;2.03;;;1.92;;
9767;SDS011;4923;52.520;13.494;2024-02-14T14:02:00;1.65;;;1.55;;
9767;SDS011;4923;52.520;13.494;2024-02-14T14:04:50;2.35;;;1.40;;
9767;SDS011;4923;52.520;13.494;2024-02-14T14:07:39;5.35;;;1.70;;
9767;SDS011;4923;52.520;13.494;2024-02-14T14:10:30;5.10;;;1.42;;
9767;SDS011;4923;52.520;13.494;2024-02-14T14:13:17;2.13;;;1.60;;
9767;SDS011;4923;52.520;13.494;2024-02-14T14:16:04;10.05;;;1.70;;
9767;SDS011;4923;52.520;13.494;2024-02-14T14:18:51;1.63;;;1.52;;
9767;SDS011;4923;52.520;13.494;2024-02-14T14:21:38;1.40;;;1.30;;
9767;SDS011;4923;52.520;13.494;2024-02-14T14:24:27;4.60;;;1.48;;
9767;SDS011;4923;52.520;13.494;2024-02-14T14:27:17;2.65;;;1.63;;
9767;SDS011;4923;52.520;13.494;2024-02-14T14:30:07;5.90;;;2.15;;
9767;SDS011;4923;52.520;13.494;2024-02-14T14:32:54;3.50;;;2.05;;
9767;SDS011;4923;52.520;13.494;2024-02-14T14:35:43;3.65;;;1.67;;
9767;SDS011;4923;52.520;13.494;2024-02-14T14:38:30;1.50;;;1.40;;
9767;SDS011;4923;52.520;13.494;2024-02-14T14:41:19;3.38;;;1.60;;
9767;SDS011;4923;52.520;13.494;2024-02-14T14:44:08;1.75;;;1.65;;
9767;SDS011;4923;52.520;13.494;2024-02-14T14:46:55;4.05;;;2.55;;
9767;SDS011;4923;52.520;13.494;2024-02-14T14:49:45;1.83;;;1.70;;
9767;SDS011;4923;52.520;13.494;2024-02-14T14:52:39;4.22;;;2.45;;
9767;SDS011;4923;52.520;13.494;2024-02-14T14:55:27;2.05;;;1.95;;
9767;SDS011;4923;52.520;13.494;2024-02-14T14:58:36;2.13;;;1.55;;
9767;SDS011;4923;52.520;13.494;2024-02-14T15:01:32;3.25;;;2.00;;
9767;SDS011;4923;52.520;13.494;2024-02-14T15:04:20;2.33;;;2.08;;
9767;SDS011;4923;52.520;13.494;2024-02-14T15:07:07;1.98;;;1.88;;
9767;SDS011;4923;52.520;13.494;2024-02-14T15:09:54;2.10;;;1.67;;
9767;SDS011;4923;52.520;13.494;2024-02-14T15:12:43;1.80;;;1.70;;
9767;SDS011;4923;52.520;13.494;2024-02-14T15:15:30;2.40;;;2.30;;
9767;SDS011;4923;52.520;13.494;2024-02-14T15:18:19;3.22;;;2.00;;
9767;SDS011;4923;52.520;13.494;2024-02-14T15:21:06;2.90;;;2.28;;
9767;SDS011;4923;52.520;13.494;2024-02-14T15:23:53;2.05;;;1.95;;
9767;SDS011;4923;52.520;13.494;2024-02-14T15:26:42;1.88;;;1.88;;
9767;SDS011;4923;52.520;13.494;2024-02-14T15:29:37;3.38;;;2.22;;
9767;SDS011;4923;52.520;13.494;2024-02-14T15:32:42;3.17;;;1.73;;
9767;SDS011;4923;52.520;13.494;2024-02-14T15:35:48;1.92;;;1.83;;
9767;SDS011;4923;52.520;13.494;2024-02-14T15:38:37;3.00;;;1.67;;
9767;SDS011;4923;52.520;13.494;2024-02-14T15:41:26;2.95;;;1.48;;
9767;SDS011;4923;52.520;13.494;2024-02-14T15:44:17;2.13;;;2.03;;
9767;SDS011;4923;52.520;13.494;2024-02-14T15:47:04;9.07;;;2.00;;
9767;SDS011;4923;52.520;13.494;2024-02-14T15:49:53;6.65;;;1.52;;
9767;SDS011;4923;52.520;13.494;2024-02-14T15:52:41;2.05;;;1.85;;
9767;SDS011;4923;52.520;13.494;2024-02-14T15:55:31;1.90;;;1.80;;
9767;SDS011;4923;52.520;13.494;2024-02-14T15:58:18;2.13;;;2.00;;
9767;SDS011;4923;52.520;13.494;2024-02-14T16:01:05;2.22;;;2.13;;
9767;SDS011;4923;52.520;13.494;2024-02-14T16:03:52;1.85;;;1.75;;
9767;SDS011;4923;52.520;13.494;2024-02-14T16:06:39;1.98;;;1.88;;
9767;SDS011;4923;52.520;13.494;2024-02-14T16:09:29;5.57;;;1.85;;
9767;SDS011;4923;52.520;13.494;2024-02-14T16:12:18;2.95;;;1.90;;
9767;SDS011;4923;52.520;13.494;2024-02-14T16:15:08;12.77;;;2.33;;
9767;SDS011;4923;52.520;13.494;2024-02-14T16:17:55;5.78;;;1.67;;
9767;SDS011;4923;52.520;13.494;2024-02-14T16:20:42;2.42;;;2.33;;
9767;SDS011;4923;52.520;13.494;2024-02-14T16:23:29;5.55;;;2.33;;
9767;SDS011;4923;52.520;13.494;2024-02-14T16:26:18;2.42;;;2.13;;
9767;SDS011;4923;52.520;13.494;2024-02-14T16:29:05;3.60;;;2.05;;
9767;SDS011;4923;52.520;13.494;2024-02-14T16:31:52;4.95;;;1.70;;
9767;SDS011;4923;52.520;13.494;2024-02-14T16:34:39;6.45;;;3.00;;
9767;SDS011;4923;52.520;13.494;2024-02-14T16:37:27;2.13;;;1.95;;
9767;SDS011;4923;52.520;13.494;2024-02-14T16:40:16;3.60;;;2.13;;
9767;SDS011;4923;52.520;13.494;2024-02-14T16:43:04;4.22;;;2.20;;
9767;SDS011;4923;52.520;13.494;2024-02-14T16:45:54;2.75;;;2.40;;
9767;SDS011;4923;52.520;13.494;2024-02-14T16:48:41;9.07;;;2.28;;
9767;SDS011;4923;52.520;13.494;2024-02-14T16:51:28;3.90;;;2.45;;
9767;SDS011;4923;52.520;13.494;2024-02-14T16:54:15;5.75;;;2.38;;
9767;SDS011;4923;52.520;13.494;2024-02-14T16:57:03;2.50;;;2.35;;
9767;SDS011;4923;52.520;13.494;2024-02-14T16:59:55;2.97;;;2.42;;
9767;SDS011;4923;52.520;13.494;2024-02-14T17:02:42;4.57;;;2.40;;
9767;SDS011;4923;52.520;13.494;2024-02-14T17:05:30;2.47;;;2.38;;
9767;SDS011;4923;52.520;13.494;2024-02-14T17:08:17;8.32;;;2.03;;
9767;SDS011;4923;52.520;13.494;2024-02-14T17:11:04;2.70;;;2.60;;